Time;durP1;ratioP1;P1;durP2;ratioP2;P2;SDS_P1;SDS_P2;PMS_P1;PMS_P2;Temp;Humidity;BMP_temperature;BMP_pressure;BME280_temperature;BME280_humidity;BME280_pressure;Samples;Min_cycle;Max_cycle;Signal;HPM_P1;HPM_P2
2023/09/14 00:00:19;;;;;;;0.10;0.10;;;;;;;17.18;69.57;101152.28;7356328;19;20038;-62
2023/09/14 00:02:44;;;;;;;0.10;0.10;;;;;;;17.14;69.61;101152.53;7358603;19;20015;-62
2023/09/14 00:05:10;;;;;;;0.10;0.10;;;;;;;17.19;69.41;101163.75;7358980;19;20006;-62
2023/09/14 00:07:35;;;;;;;0.10;0.10;;;;;;;17.17;69.76;101161.16;7360021;19;20964;-62
2023/09/14 00:10:01;;;;;;;0.10;0.10;;;;;;;17.17;69.73;101161.16;7358524;19;20382;-62
2023/09/14 00:12:26;;;;;;;0.10;0.10;;;;;;;17.16;69.44;101162.06;7357096;19;20448;-62
2023/09/14 00:14:51;;;;;;;0.10;0.10;;;;;;;17.16;69.33;101161.22;7359865;19;20364;-62
2023/09/14 00:17:17;;;;;;;0.10;0.10;;;;;;;17.14;69.23;101150.75;7359784;19;20032;-62
2023/09/14 00:19:42;;;;;;;0.10;0.10;;;;;;;17.15;69.52;101160.38;7355335;19;20029;-62
2023/09/14 00:22:09;;;;;;;0.10;0.10;;;;;;;17.16;69.06;101161.22;7365365;19;20017;-62
2023/09/14 00:24:35;;;;;;;0.00;0.00;;;;;;;17.08;69.21;101145.69;7363685;19;20014;-62
2023/09/14 00:27:00;;;;;;;0.10;0.10;;;;;;;17.15;68.93;101165.66;7356706;19;20017;-62
2023/09/14 00:29:26;;;;;;;0.10;0.10;;;;;;;17.15;68.89;101157.72;7358559;19;20011;-62
2023/09/14 00:31:51;;;;;;;0.10;0.10;;;;;;;17.15;68.61;101160.38;7356227;19;20027;-62
2023/09/14 00:34:16;;;;;;;0.10;0.10;;;;;;;17.16;68.96;101170.00;7356209;19;20089;-62
2023/09/14 00:36:42;;;;;;;0.10;0.10;;;;;;;17.15;68.90;101167.44;7359373;19;20023;-62
2023/09/14 00:39:10;;;;;;;0.10;0.10;;;;;;;17.16;68.02;101162.06;7357926;19;20018;-62
2023/09/14 00:41:36;;;;;;;0.10;0.10;;;;;;;17.14;68.82;101169.22;7363497;19;20507;-62
2023/09/14 00:44:01;;;;;;;0.10;0.10;;;;;;;17.13;68.83;101156.91;7356528;19;20015;-62
2023/09/14 00:46:27;;;;;;;0.10;0.10;;;;;;;17.11;68.28;101164.06;7352769;19;20011;-62
2023/09/14 00:48:53;;;;;;;0.10;0.10;;;;;;;17.08;68.72;101170.34;7348968;19;20371;-62
2023/09/14 00:51:19;;;;;;;0.10;0.10;;;;;;;17.05;68.96;101170.44;7354228;19;20532;-62
2023/09/14 00:53:44;;;;;;;0.10;0.10;;;;;;;17.01;68.83;101170.63;7366107;19;20007;-62
2023/09/14 00:56:11;;;;;;;0.10;0.10;;;;;;;17.00;68.71;101163.66;7363496;19;20071;-62
2023/09/14 00:58:38;;;;;;;0.10;0.10;;;;;;;16.99;68.95;101159.31;7355410;19;20664;-62
2023/09/14 01:01:04;;;;;;;;;;;;;;;16.99;66.05;101160.16;7357694;19;20015;-62
2023/09/14 01:03:30;;;;;;;0.10;0.10;;;;;;;16.88;69.00;101153.59;7356989;19;19953;-62
2023/09/14 01:05:56;;;;;;;0.00;0.00;;;;;;;16.82;68.70;101142.38;7356846;19;20010;-62
2023/09/14 01:08:22;;;;;;;0.10;0.10;;;;;;;16.89;69.04;101160.59;7364330;19;20021;-62
2023/09/14 01:10:48;;;;;;;0.10;0.10;;;;;;;16.84;68.85;101159.00;7360111;19;20019;-62
2023/09/14 01:13:32;;;;;;;0.00;0.00;;;;;;;16.87;67.82;101160.66;7363667;19;20758;-62
2023/09/14 01:16:15;;;;;;;0.00;0.00;;;;;;;16.83;68.23;101151.19;7363163;19;20003;-62
2023/09/14 01:18:46;;;;;;;0.10;0.10;;;;;;;16.79;68.79;101149.56;7366943;19;20022;-63
2023/09/14 01:21:24;;;;;;;0.10;0.10;;;;;;;16.75;68.76;101150.63;7362912;19;20010;-63
2023/09/14 01:24:17;;;;;;;0.10;0.10;;;;;;;16.74;68.39;101149.75;7367360;19;20010;-62
2023/09/14 01:26:43;;;;;;;0.10;0.10;;;;;;;16.59;68.85;101135.41;7370550;19;20041;-62
2023/09/14 01:29:09;;;;;;;0.10;0.10;;;;;;;16.70;68.81;101152.56;7366560;19;20015;-63
2023/09/14 01:31:34;;;;;;;0.10;0.10;;;;;;;16.66;68.90;101156.22;7374394;19;20003;-62
2023/09/14 01:34:00;;;;;;;0.10;0.10;;;;;;;16.62;69.32;101158.13;7365566;19;20363;-62
2023/09/14 01:36:34;;;;;;;0.10;0.10;;;;;;;16.63;69.37;101133.50;7365172;19;20014;-63
2023/09/14 01:39:04;;;;;;;0.10;0.10;;;;;;;16.39;69.05;101116.03;7363355;19;20036;-62
2023/09/14 01:41:31;;;;;;;0.10;0.10;;;;;;;16.59;68.95;101174.09;7355684;19;20045;-62
2023/09/14 01:43:57;;;;;;;0.10;0.10;;;;;;;16.59;69.21;101160.91;7368748;19;20045;-62
2023/09/14 01:46:24;;;;;;;0.10;0.10;;;;;;;16.49;69.52;101133.19;7365509;19;20743;-63
2023/09/14 01:48:50;;;;;;;0.05;0.05;;;;;;;16.58;69.27;101146.88;7366182;19;20025;-62
2023/09/14 01:51:15;;;;;;;0.10;0.10;;;;;;;16.57;69.21;101146.91;7364915;19;20010;-62
2023/09/14 01:53:40;;;;;;;0.10;0.10;;;;;;;16.53;69.34;101145.34;7365092;19;20067;-62
2023/09/14 01:56:06;;;;;;;0.10;0.10;;;;;;;16.55;69.21;101148.75;7366046;19;20018;-62
2023/09/14 01:58:31;;;;;;;0.10;0.10;;;;;;;16.57;69.26;101154.81;7361266;19;20031;-62
2023/09/14 02:00:57;;;;;;;0.00;0.00;;;;;;;16.57;69.24;101157.44;7368156;19;20010;-62
2023/09/14 02:03:23;;;;;;;0.10;0.10;;;;;;;16.57;69.29;101168.00;7363632;19;20022;-62
2023/09/14 02:05:58;;;;;;;0.10;0.10;;;;;;;16.59;68.86;101160.91;7366347;19;20509;-62
2023/09/14 02:08:25;;;;;;;0.10;0.10;;;;;;;16.56;69.52;101161.00;7369332;19;20435;-62
2023/09/14 02:10:51;;;;;;;0.10;0.10;;;;;;;16.52;69.47;101143.59;7362530;19;20014;-62
2023/09/14 02:13:16;;;;;;;0.00;0.00;;;;;;;16.55;69.16;101154.03;7364534;19;20029;-62
2023/09/14 02:15:42;;;;;;;0.08;0.08;;;;;;;16.54;69.29;101155.81;7365588;19;20010;-62
2023/09/14 02:18:07;;;;;;;0.10;0.10;;;;;;;16.54;68.74;101157.59;7347442;19;20018;-62
2023/09/14 02:20:35;;;;;;;0.10;0.10;;;;;;;16.41;69.09;101132.63;7368586;19;20013;-62
2023/09/14 02:23:01;;;;;;;0.10;0.10;;;;;;;16.49;69.16;101154.28;7366540;19;20010;-62
2023/09/14 02:25:26;;;;;;;0.10;0.10;;;;;;;16.47;69.50;101150.84;7365605;19;20069;-62
2023/09/14 02:27:52;;;;;;;0.10;0.10;;;;;;;16.33;69.17;101141.72;7360278;19;20106;-62
2023/09/14 02:30:18;;;;;;;0.08;0.08;;;;;;;16.42;69.40;101163.34;7364545;19;20010;-61
2023/09/14 02:32:43;;;;;;;0.05;0.05;;;;;;;16.37;69.01;101160.03;7366269;19;20018;-62
2023/09/14 02:35:09;;;;;;;0.10;0.10;;;;;;;16.37;69.12;101171.41;7355672;19;20003;-62
2023/09/14 02:37:34;;;;;;;0.10;0.10;;;;;;;16.33;68.79;101165.44;7360605;19;20018;-62
2023/09/14 02:39:59;;;;;;;0.10;0.10;;;;;;;16.24;69.13;101165.78;7365079;19;20332;-62
2023/09/14 02:42:25;;;;;;;0.10;0.10;;;;;;;16.28;69.16;101172.66;7361342;19;20021;-62
2023/09/14 02:44:50;;;;;;;0.03;0.03;;;;;;;16.27;69.22;101181.50;7372183;19;20446;-62
2023/09/14 02:47:16;;;;;;;0.10;0.10;;;;;;;16.23;69.31;101174.63;7371674;19;20018;-62
2023/09/14 02:49:41;;;;;;;0.10;0.10;;;;;;;16.20;69.42;101176.50;7364971;19;20482;-62
2023/09/14 02:52:06;;;;;;;0.10;0.10;;;;;;;16.19;69.36;101175.66;7363790;19;20687;-62
2023/09/14 02:54:32;;;;;;;0.10;0.10;;;;;;;16.17;69.34;101179.25;7364155;19;20392;-62
2023/09/14 02:56:57;;;;;;;0.10;0.10;;;;;;;16.16;69.33;101178.38;7356323;19;20519;-62
2023/09/14 02:59:23;;;;;;;0.00;0.00;;;;;;;16.14;69.63;101177.59;7362273;19;20771;-62
2023/09/14 03:01:49;;;;;;;0.10;0.10;;;;;;;16.04;69.16;101168.34;7361769;19;20014;-62
2023/09/14 03:04:15;;;;;;;0.00;0.00;;;;;;;16.11;69.55;101185.59;7364422;19;20014;-62
2023/09/14 03:06:41;;;;;;;0.00;0.00;;;;;;;16.09;69.30;101190.09;7364035;19;20025;-62
2023/09/14 03:09:06;;;;;;;0.10;0.10;;;;;;;15.99;69.14;101178.19;7361324;19;20018;-62
2023/09/14 03:11:32;;;;;;;0.10;0.10;;;;;;;16.06;69.44;101187.56;7360673;19;20405;-62
2023/09/14 03:13:57;;;;;;;0.10;0.10;;;;;;;16.04;69.64;101189.41;7365348;19;20015;-62
2023/09/14 03:16:22;;;;;;;0.10;0.10;;;;;;;16.02;69.65;101185.97;7366319;19;20052;-62
2023/09/14 03:18:48;;;;;;;0.05;0.05;;;;;;;15.99;69.44;101183.44;7326675;19;20010;-62
2023/09/14 03:21:27;;;;;;;0.10;0.10;;;;;;;16.02;68.59;101183.34;7363177;19;20003;-62
2023/09/14 03:23:53;;;;;;;0.10;0.10;;;;;;;15.98;69.22;101189.63;7363873;19;20007;-62
2023/09/14 03:26:19;;;;;;;0.00;0.00;;;;;;;15.96;69.26;101186.19;7366422;19;20025;-62
2023/09/14 03:28:48;;;;;;;0.10;0.10;;;;;;;15.93;69.04;101187.16;7366722;19;20021;-62
2023/09/14 03:31:13;;;;;;;0.00;0.00;;;;;;;15.92;68.76;101189.88;7362109;19;20010;-62
2023/09/14 03:33:38;;;;;;;0.08;0.08;;;;;;;15.88;69.01;101189.13;7367275;19;20630;-62
2023/09/14 03:36:05;;;;;;;0.13;0.13;;;;;;;15.89;68.80;101189.97;7357164;19;20010;-62
2023/09/14 03:38:30;;;;;;;0.00;0.00;;;;;;;15.87;69.42;101194.44;7368719;19;20049;-62
2023/09/14 03:40:55;;;;;;;0.10;0.10;;;;;;;15.85;69.55;101177.81;7364308;19;20305;-62
2023/09/14 03:43:21;;;;;;;0.10;0.10;;;;;;;15.83;69.55;101186.66;7367892;19;20362;-62
2023/09/14 03:45:46;;;;;;;0.10;0.10;;;;;;;15.77;69.60;101181.63;7360733;19;20016;-62
2023/09/14 03:48:12;;;;;;;0.10;0.10;;;;;;;15.79;69.21;101185.03;7361885;19;20086;-62
2023/09/14 03:50:38;;;;;;;0.10;0.10;;;;;;;15.65;69.30;101160.97;7363622;19;20009;-62
2023/09/14 03:53:03;;;;;;;0.00;0.00;;;;;;;15.73;69.62;101190.53;7366292;19;20018;-62
2023/09/14 03:55:30;;;;;;;0.10;0.10;;;;;;;15.73;69.29;101190.53;7364566;19;20006;-62
2023/09/14 03:57:55;;;;;;;0.00;0.00;;;;;;;15.71;69.28;101197.66;7365664;19;20018;-62
2023/09/14 04:00:21;;;;;;;0.00;0.00;;;;;;;15.69;69.48;101193.34;7363388;19;20043;-62
2023/09/14 04:02:46;;;;;;;0.10;0.10;;;;;;;15.67;69.15;101193.41;7364429;19;20710;-62
2023/09/14 04:05:14;;;;;;;0.10;0.10;;;;;;;15.66;69.35;101190.78;7362309;19;20002;-62
2023/09/14 04:07:40;;;;;;;0.10;0.10;;;;;;;15.64;69.19;101195.28;7362960;19;20025;-62
2023/09/14 04:10:06;;;;;;;0.10;0.10;;;;;;;15.61;69.00;101185.66;7363305;19;20813;-62
2023/09/14 04:12:32;;;;;;;0.10;0.10;;;;;;;15.49;69.26;101170.31;7366394;19;20017;-62
2023/09/14 04:14:57;;;;;;;0.10;0.10;;;;;;;15.57;69.56;101189.34;7360687;19;20006;-62
2023/09/14 04:17:22;;;;;;;0.05;0.05;;;;;;;15.51;69.15;101182.53;7369882;19;20368;-62
2023/09/14 04:19:48;;;;;;;0.00;0.00;;;;;;;15.49;69.08;101181.69;7368303;19;20009;-62
2023/09/14 04:22:13;;;;;;;0.10;0.10;;;;;;;15.51;69.13;101184.28;7367372;19;20018;-62
2023/09/14 04:24:39;;;;;;;0.10;0.10;;;;;;;15.48;69.42;101184.41;7363902;19;20727;-62
2023/09/14 04:27:04;;;;;;;0.10;0.10;;;;;;;15.43;69.63;101175.81;7374198;19;20022;-62
2023/09/14 04:29:32;;;;;;;0.00;0.00;;;;;;;15.45;69.35;101200.28;7361424;19;20024;-62
2023/09/14 04:31:58;;;;;;;0.10;0.10;;;;;;;15.42;69.67;101203.91;7357057;19;20006;-62
2023/09/14 04:34:24;;;;;;;0.08;0.08;;;;;;;15.39;69.63;101200.50;7370745;19;20820;-62
2023/09/14 04:36:49;;;;;;;0.10;0.10;;;;;;;15.35;69.95;101202.38;7369275;19;20106;-62
2023/09/14 04:39:15;;;;;;;0.10;0.10;;;;;;;15.34;69.31;101199.81;7365763;19;20010;-62
2023/09/14 04:41:40;;;;;;;0.08;0.08;;;;;;;15.31;69.92;101203.41;7366492;19;20568;-62
2023/09/14 04:44:06;;;;;;;0.10;0.10;;;;;;;15.02;69.48;101154.41;7366655;19;20006;-62
2023/09/14 04:46:31;;;;;;;0.10;0.10;;;;;;;15.25;69.65;101204.47;7373063;19;20015;-62
2023/09/14 04:48:56;;;;;;;0.00;0.00;;;;;;;15.21;69.48;101197.59;7370721;19;20725;-62
2023/09/14 04:51:23;;;;;;;0.00;0.00;;;;;;;15.19;69.57;101199.41;7370748;19;20007;-63
2023/09/14 04:53:48;;;;;;;0.05;0.05;;;;;;;15.18;69.72;101208.22;7376658;19;20013;-62
2023/09/14 04:56:14;;;;;;;0.00;0.00;;;;;;;15.16;69.70;101209.19;7371002;19;20070;-63
2023/09/14 04:58:39;;;;;;;0.10;0.10;;;;;;;15.05;69.73;101193.75;7366343;19;20017;-62
2023/09/14 05:01:05;;;;;;;0.10;0.10;;;;;;;15.12;69.62;101207.56;7374321;19;20434;-62
2023/09/14 05:03:31;;;;;;;0.10;0.10;;;;;;;15.09;69.79;101210.28;7364682;19;20007;-62
2023/09/14 05:05:56;;;;;;;0.10;0.10;;;;;;;15.06;69.82;101200.75;7366839;19;20007;-62
2023/09/14 05:08:22;;;;;;;0.00;0.00;;;;;;;15.04;69.92;101206.03;7369743;19;20007;-62
2023/09/14 05:10:49;;;;;;;0.00;0.00;;;;;;;15.02;70.17;101196.50;7371596;19;20011;-62
2023/09/14 05:13:15;;;;;;;0.10;0.10;;;;;;;14.99;70.12;101207.09;7367760;19;20010;-62
2023/09/14 05:15:40;;;;;;;0.10;0.10;;;;;;;14.97;69.78;101203.69;7378113;19;20005;-62
2023/09/14 05:18:06;;;;;;;0.10;0.10;;;;;;;14.85;69.94;101186.53;7359176;19;20465;-62
2023/09/14 05:20:31;;;;;;;0.10;0.10;;;;;;;14.93;69.67;101202.91;7371863;19;20007;-62
2023/09/14 05:22:56;;;;;;;0.00;0.00;;;;;;;14.89;70.15;101201.28;7369914;19;20017;-62
2023/09/14 05:25:25;;;;;;;0.10;0.10;;;;;;;14.90;69.89;101212.66;7367212;19;20011;-62
2023/09/14 05:27:51;;;;;;;0.10;0.10;;;;;;;14.89;69.56;101211.81;7368181;19;20031;-62
2023/09/14 05:30:21;;;;;;;0.10;0.10;;;;;;;14.88;69.85;101214.50;7370011;19;20432;-62
2023/09/14 05:32:47;;;;;;;0.00;0.00;;;;;;;14.79;70.30;101200.72;7366409;19;20002;-62
2023/09/14 05:35:13;;;;;;;0.10;0.10;;;;;;;14.85;69.95;101202.31;7371210;19;20074;-62
2023/09/14 05:37:38;;;;;;;0.00;0.00;;;;;;;14.84;70.06;101211.09;7375630;19;20022;-62
2023/09/14 05:40:11;;;;;;;0.10;0.10;;;;;;;14.84;69.95;101204.97;7376828;19;20014;-62
2023/09/14 05:42:37;;;;;;;0.10;0.10;;;;;;;14.82;69.99;101209.44;7364646;19;20115;-62
2023/09/14 05:45:07;;;;;;;0.10;0.10;;;;;;;14.83;70.20;101201.50;7370223;19;20074;-62
2023/09/14 05:47:32;;;;;;;0.10;0.10;;;;;;;14.82;70.30;101201.56;7362732;19;20006;-62
2023/09/14 05:49:57;;;;;;;0.10;0.10;;;;;;;14.81;70.03;101198.06;7368736;19;20017;-62
2023/09/14 05:52:23;;;;;;;0.10;0.10;;;;;;;14.80;70.34;101201.59;7367841;19;20829;-62
2023/09/14 05:54:49;;;;;;;0.00;0.00;;;;;;;14.71;70.35;101186.97;7366113;19;20003;-62
2023/09/14 05:57:14;;;;;;;0.10;0.10;;;;;;;14.79;70.39;101202.50;7370500;19;20015;-62
2023/09/14 05:59:40;;;;;;;0.10;0.10;;;;;;;14.79;70.24;101213.00;7365630;19;20027;-62
2023/09/14 06:02:06;;;;;;;0.10;0.10;;;;;;;14.76;70.39;101207.88;7351076;19;20015;-62
2023/09/14 06:04:32;;;;;;;0.10;0.10;;;;;;;14.76;70.79;101203.47;7369287;19;20538;-62
2023/09/14 06:06:57;;;;;;;0.10;0.10;;;;;;;14.62;70.45;101192.53;7364988;19;20015;-62
2023/09/14 06:09:22;;;;;;;0.10;0.10;;;;;;;14.75;70.46;101214.91;7364471;19;20018;-62
2023/09/14 06:11:48;;;;;;;0.10;0.10;;;;;;;14.75;70.87;101225.41;7367943;19;20029;-62
2023/09/14 06:14:13;;;;;;;0.10;0.10;;;;;;;14.75;70.61;101221.91;7370257;19;20022;-62
2023/09/14 06:16:39;;;;;;;0.10;0.10;;;;;;;14.74;70.29;101221.03;7367390;19;20018;-62
2023/09/14 06:19:04;;;;;;;0.10;0.10;;;;;;;14.74;70.57;101228.91;7366837;19;20047;-62
2023/09/14 06:21:29;;;;;;;0.05;0.05;;;;;;;14.74;70.75;101234.19;7369784;19;20034;-62
2023/09/14 06:23:55;;;;;;;0.00;0.00;;;;;;;14.74;70.38;101239.44;7364269;19;20014;-62
2023/09/14 06:26:20;;;;;;;0.00;0.00;;;;;;;14.75;70.90;101233.31;7366092;19;20010;-62
2023/09/14 06:28:46;;;;;;;0.10;0.10;;;;;;;14.62;69.91;101218.81;7367527;19;20047;-62
2023/09/14 06:31:11;;;;;;;0.10;0.10;;;;;;;14.73;70.47;101237.72;7366846;19;20833;-62
2023/09/14 06:33:36;;;;;;;0.10;0.10;;;;;;;14.74;70.71;101234.19;7367774;19;20525;-62
2023/09/14 06:36:02;;;;;;;0.03;0.03;;;;;;;14.76;70.63;101248.16;7367265;19;20003;-62
2023/09/14 06:38:27;;;;;;;0.10;0.10;;;;;;;14.76;70.55;101257.81;7338414;19;20057;-62
2023/09/14 06:40:53;;;;;;;0.10;0.10;;;;;;;14.67;70.57;101240.56;7362989;19;20368;-62
2023/09/14 06:43:18;;;;;;;0.00;0.00;;;;;;;14.74;69.92;101249.97;7364774;19;20027;-62
2023/09/14 06:45:44;;;;;;;0.10;0.10;;;;;;;14.79;70.19;101261.19;7362157;19;20006;-62
2023/09/14 06:48:09;;;;;;;0.10;0.10;;;;;;;14.79;70.78;101258.56;7364288;19;20785;-62
2023/09/14 06:50:35;;;;;;;0.10;0.10;;;;;;;14.82;70.92;101262.03;7367015;19;20074;-62
2023/09/14 06:53:00;;;;;;;0.10;0.10;;;;;;;14.85;70.70;101267.16;7369941;19;20017;-62
2023/09/14 06:55:25;;;;;;;0.10;0.10;;;;;;;14.87;70.96;101260.97;7366433;19;20018;-62
2023/09/14 06:57:51;;;;;;;0.10;0.10;;;;;;;14.83;71.16;101247.97;7367911;19;20070;-62
2023/09/14 07:00:20;;;;;;;0.10;0.10;;;;;;;14.93;70.96;101265.16;7363356;19;20006;-62
2023/09/14 07:02:47;;;;;;;0.10;0.10;;;;;;;14.96;70.76;101265.94;7365121;19;20019;-62
2023/09/14 07:05:13;;;;;;;0.10;0.10;;;;;;;14.99;71.07;101265.81;7365740;19;20032;-62
2023/09/14 07:07:39;;;;;;;0.10;0.10;;;;;;;14.99;70.75;101271.09;7366650;19;20022;-62
2023/09/14 07:10:06;;;;;;;0.10;0.10;;;;;;;15.08;71.36;101275.19;7355928;19;20669;-62
2023/09/14 07:12:32;;;;;;;0.10;0.10;;;;;;;15.05;71.10;101264.75;7363024;19;20094;-62
2023/09/14 07:14:57;;;;;;;0.10;0.10;;;;;;;15.05;70.77;101256.88;7369941;19;20082;-62
2023/09/14 07:17:23;;;;;;;0.10;0.10;;;;;;;15.25;71.32;101280.75;7364095;19;20010;-62
2023/09/14 07:19:49;;;;;;;0.10;0.10;;;;;;;15.33;71.15;101291.06;7364917;19;20037;-63
2023/09/14 07:22:15;;;;;;;0.10;0.10;;;;;;;15.42;71.13;101295.16;7363190;19;20018;-62
2023/09/14 07:24:41;;;;;;;0.10;0.10;;;;;;;15.39;71.15;101274.19;7363156;19;20002;-62
2023/09/14 07:27:06;;;;;;;0.10;0.10;;;;;;;15.57;70.79;101292.00;7363079;19;20031;-62
2023/09/14 07:29:33;;;;;;;0.10;0.10;;;;;;;15.61;70.67;101290.97;7364589;19;20662;-63
2023/09/14 07:31:58;;;;;;;0.00;0.00;;;;;;;15.70;71.15;101295.09;7362943;19;20018;-63
2023/09/14 07:34:24;;;;;;;0.10;0.10;;;;;;;15.76;70.79;101301.03;7373190;19;20016;-62
2023/09/14 07:36:49;;;;;;;0.08;0.08;;;;;;;15.76;70.57;101290.50;7368077;19;20014;-63
2023/09/14 07:39:15;;;;;;;0.10;0.10;;;;;;;15.88;70.74;101293.63;7365315;19;20037;-63
2023/09/14 07:41:41;;;;;;;0.10;0.10;;;;;;;15.86;70.94;101279.63;7364445;19;20010;-62
2023/09/14 07:44:06;;;;;;;0.10;0.10;;;;;;;15.89;70.95;101279.53;7371316;19;20014;-63
2023/09/14 07:46:32;;;;;;;0.10;0.10;;;;;;;16.04;70.66;101290.38;7365442;19;20082;-63
2023/09/14 07:48:58;;;;;;;0.10;0.10;;;;;;;16.08;70.52;101275.31;7365409;19;20101;-62
2023/09/14 07:51:24;;;;;;;0.10;0.10;;;;;;;16.18;70.50;101292.50;7346031;19;20014;-63
2023/09/14 07:53:49;;;;;;;0.10;0.10;;;;;;;16.21;70.35;101287.09;7366044;19;20483;-63
2023/09/14 07:56:15;;;;;;;0.10;0.10;;;;;;;16.31;70.64;101295.53;7366716;19;20015;-62
2023/09/14 07:58:41;;;;;;;0.10;0.10;;;;;;;16.42;69.88;101301.28;7359605;19;20506;-62
2023/09/14 08:01:06;;;;;;;0.05;0.05;;;;;;;16.48;69.95;101300.22;7367143;19;20018;-62
2023/09/14 08:03:32;;;;;;;0.10;0.10;;;;;;;16.57;69.78;101310.38;7362016;19;20060;-63
2023/09/14 08:05:57;;;;;;;0.10;0.10;;;;;;;16.62;69.85;101297.88;7364503;19;20485;-63
2023/09/14 08:08:23;;;;;;;0.00;0.00;;;;;;;16.67;69.85;101290.66;7360208;19;20006;-63
2023/09/14 08:10:50;;;;;;;0.10;0.10;;;;;;;16.73;70.13;101300.16;7363372;19;20011;-63
2023/09/14 08:13:15;;;;;;;0.10;0.10;;;;;;;16.78;69.71;101291.16;7363156;19;20010;-63
2023/09/14 08:15:41;;;;;;;0.10;0.10;;;;;;;16.83;69.64;101297.09;7365980;19;20018;-63
2023/09/14 08:18:06;;;;;;;0.10;0.10;;;;;;;16.89;69.49;101300.44;7373076;19;20010;-62
2023/09/14 08:20:32;;;;;;;0.10;0.10;;;;;;;16.87;69.43;101287.28;7381765;19;20693;-62
2023/09/14 08:22:57;;;;;;;0.10;0.10;;;;;;;16.98;69.16;101295.66;7367152;19;20014;-63
2023/09/14 08:25:23;;;;;;;0.10;0.10;;;;;;;17.03;69.13;101303.34;7379063;19;20015;-63
2023/09/14 08:27:48;;;;;;;0.10;0.10;;;;;;;17.06;69.20;101295.31;7373582;19;20596;-63
2023/09/14 08:30:15;;;;;;;0.10;0.10;;;;;;;17.10;69.16;101300.41;7381179;19;20018;-62
2023/09/14 08:32:40;;;;;;;0.00;0.00;;;;;;;17.14;69.15;101301.16;7373722;19;20035;-62
2023/09/14 08:35:28;;;;;;;0.10;0.10;;;;;;;17.27;68.21;101307.66;7377861;19;20395;-63
2023/09/14 08:37:54;;;;;;;0.10;0.10;;;;;;;17.26;68.83;101294.50;7370228;19;20014;-63
2023/09/14 08:40:20;;;;;;;0.10;0.10;;;;;;;17.38;68.68;101284.28;7382051;19;20038;-63
2023/09/14 08:42:49;;;;;;;0.10;0.10;;;;;;;17.71;68.50;101304.94;7385027;19;20010;-62
2023/09/14 08:45:19;;;;;;;0.10;0.10;;;;;;;17.79;68.06;101294.94;7371645;19;20014;-63
2023/09/14 08:47:47;;;;;;;0.10;0.10;;;;;;;17.97;68.06;101297.69;7381046;19;20367;-62
2023/09/14 08:50:14;;;;;;;;;;;;;;;18.17;67.45;101305.59;7380478;19;20079;-62
2023/09/14 08:52:41;;;;;;;0.10;0.10;;;;;;;18.15;67.52;101313.63;7374924;19;19914;-63
2023/09/14 08:55:08;;;;;;;0.10;0.10;;;;;;;18.20;67.15;101313.41;7374798;19;20010;-63
2023/09/14 08:57:36;;;;;;;0.10;0.10;;;;;;;18.12;67.19;101292.59;7377529;19;20014;-63
2023/09/14 09:00:03;;;;;;;0.10;0.10;;;;;;;18.29;67.16;101315.63;7379606;19;20038;-62
2023/09/14 09:02:32;;;;;;;0.10;0.10;;;;;;;18.35;67.17;101312.72;7380319;19;20010;-62
2023/09/14 09:04:58;;;;;;;0.10;0.10;;;;;;;18.41;67.31;101316.88;7380758;19;20282;-63
2023/09/14 09:07:24;;;;;;;0.10;0.10;;;;;;;18.54;67.16;101320.66;7373067;19;20023;-62
2023/09/14 09:09:49;;;;;;;0.10;0.10;;;;;;;18.70;67.43;101309.38;7376363;19;20014;-62
2023/09/14 09:12:15;;;;;;;0.10;0.10;;;;;;;18.83;67.20;101311.41;7360263;19;20022;-62
2023/09/14 09:14:44;;;;;;;0.10;0.10;;;;;;;19.05;66.99;101316.50;7377308;19;20039;-63
2023/09/14 09:17:09;;;;;;;0.10;0.10;;;;;;;19.26;66.62;101317.28;7378269;19;20014;-63
2023/09/14 09:19:48;;;;;;;0.10;0.10;;;;;;;19.58;66.64;101315.66;7373781;19;20014;-63
2023/09/14 09:22:17;;;;;;;0.10;0.10;;;;;;;19.78;65.69;101311.19;7377760;19;20010;-62
2023/09/14 09:24:42;;;;;;;0.05;0.05;;;;;;;19.92;65.27;101317.50;7377987;19;20013;-62
2023/09/14 09:27:26;;;;;;;0.10;0.10;;;;;;;20.23;65.61;101317.69;7377681;19;20007;-62
2023/09/14 09:29:57;;;;;;;0.10;0.10;;;;;;;20.41;65.10;101317.53;7369694;19;20019;-62
2023/09/14 09:32:23;;;;;;;0.10;0.10;;;;;;;20.54;64.10;101323.06;7369981;19;20014;-62
2023/09/14 09:34:48;;;;;;;0.10;0.10;;;;;;;20.74;63.68;101319.34;7367243;19;21859;-63
2023/09/14 09:37:14;;;;;;;0.10;0.10;;;;;;;20.93;63.25;101316.47;7369016;19;20011;-63
2023/09/14 09:39:40;;;;;;;0.10;0.10;;;;;;;21.06;62.60;101314.88;7367283;19;20019;-62
2023/09/14 09:42:08;;;;;;;0.10;0.10;;;;;;;21.27;62.50;101323.41;7373256;19;20006;-62
2023/09/14 09:44:34;;;;;;;0.10;0.10;;;;;;;21.45;62.41;101311.75;7369079;19;20010;-63
2023/09/14 09:47:00;;;;;;;0.10;0.10;;;;;;;21.73;62.29;101304.78;7372847;19;20021;-63
2023/09/14 09:49:28;;;;;;;0.00;0.00;;;;;;;22.10;61.78;101314.09;7372972;19;20321;-62
2023/09/14 09:51:54;;;;;;;0.10;0.10;;;;;;;22.30;60.62;101315.50;7365972;19;20037;-62
2023/09/14 09:54:20;;;;;;;0.10;0.10;;;;;;;22.47;59.26;101307.34;7369174;19;20453;-62
2023/09/14 09:56:46;;;;;;;0.10;0.10;;;;;;;22.63;58.32;101314.38;7371569;19;20007;-63
2023/09/14 09:59:14;;;;;;;0.03;0.03;;;;;;;22.78;58.18;101316.06;7370813;19;21181;-62
2023/09/14 10:01:43;;;;;;;0.17;0.17;;;;;;;22.74;57.33;101306.53;7368454;19;20055;-62
2023/09/14 10:04:12;;;;;;;0.10;0.10;;;;;;;22.80;57.57;101306.16;7368181;19;20126;-62
2023/09/14 10:06:40;;;;;;;0.10;0.10;;;;;;;22.84;56.75;101304.16;7367412;19;20015;-62
2023/09/14 10:09:10;;;;;;;0.10;0.10;;;;;;;22.94;56.73;101308.81;7363410;19;20032;-62
2023/09/14 10:11:37;;;;;;;0.10;0.10;;;;;;;22.96;56.58;101308.69;7361861;19;20018;-62
2023/09/14 10:14:03;;;;;;;0.10;0.10;;;;;;;23.04;56.30;101307.25;7369427;19;20049;-62
2023/09/14 10:16:34;;;;;;;0.10;0.10;;;;;;;23.14;55.59;101310.19;7366519;19;20039;-62
2023/09/14 10:19:01;;;;;;;0.10;0.10;;;;;;;23.18;55.78;101306.34;7370677;19;20700;-61
2023/09/14 10:21:27;;;;;;;0.10;0.10;;;;;;;23.21;55.56;101302.63;7368770;19;20022;-62
2023/09/14 10:23:53;;;;;;;0.10;0.10;;;;;;;23.14;54.41;101298.66;7368264;19;20011;-62
2023/09/14 10:26:19;;;;;;;0.10;0.10;;;;;;;23.17;54.72;101306.47;7372684;19;20039;-62
2023/09/14 10:28:46;;;;;;;0.10;0.10;;;;;;;23.23;54.31;101306.06;7368679;19;20014;-62
2023/09/14 10:31:13;;;;;;;0.10;0.10;;;;;;;23.30;53.80;101310.00;7370124;19;20434;-62
2023/09/14 10:33:43;;;;;;;0.10;0.10;;;;;;;23.40;52.91;101308.44;7377093;19;20011;-62
2023/09/14 10:36:10;;;;;;;0.10;0.10;;;;;;;23.38;52.37;101310.38;7363983;19;20014;-63
2023/09/14 10:38:42;;;;;;;0.10;0.10;;;;;;;23.32;52.84;101305.47;7369237;19;20018;-62
2023/09/14 10:41:07;;;;;;;0.10;0.10;;;;;;;23.40;52.55;101313.78;7367073;19;20071;-62
2023/09/14 10:43:33;;;;;;;0.10;0.10;;;;;;;23.46;53.61;101315.19;7370573;19;20634;-62
2023/09/14 10:46:01;;;;;;;0.10;0.10;;;;;;;23.63;52.95;101311.38;7365524;19;20018;-62
2023/09/14 10:48:29;;;;;;;0.10;0.10;;;;;;;23.81;51.84;101310.16;7368789;19;20626;-62
2023/09/14 10:50:58;;;;;;;0.10;0.10;;;;;;;23.97;51.25;101289.44;7366138;19;20014;-62
2023/09/14 10:53:24;;;;;;;0.10;0.10;;;;;;;24.26;50.05;101302.56;7370468;19;20028;-62
2023/09/14 10:55:50;;;;;;;0.10;0.10;;;;;;;24.44;49.64;101298.66;7368976;19;20090;-62
2023/09/14 10:58:16;;;;;;;0.10;0.10;;;;;;;24.71;49.65;101297.63;7369882;19;20022;-62
2023/09/14 11:00:45;;;;;;;0.10;0.10;;;;;;;24.97;49.64;101293.88;7363109;19;20010;-62
2023/09/14 11:03:12;;;;;;;0.08;0.08;;;;;;;25.23;48.12;101296.47;7366553;19;21085;-62
2023/09/14 11:05:40;;;;;;;0.00;0.00;;;;;;;25.52;48.61;101295.13;7365368;19;20478;-62
2023/09/14 11:08:06;;;;;;;0.10;0.10;;;;;;;25.59;46.39;101295.50;7366802;19;20016;-62
2023/09/14 11:10:34;;;;;;;0.10;0.10;;;;;;;25.62;46.90;101277.41;7367123;19;20553;-62
2023/09/14 11:13:21;;;;;;;0.10;0.10;;;;;;;25.97;49.18;101297.94;7367332;19;20018;-62
2023/09/14 11:16:10;;;;;;;0.10;0.10;;;;;;;26.05;49.07;101298.16;7365333;19;20496;-62
2023/09/14 11:18:56;;;;;;;0.00;0.00;;;;;;;26.19;49.17;101286.38;7364145;19;20026;-62
2023/09/14 11:21:33;;;;;;;0.08;0.08;;;;;;;26.25;48.82;101290.41;7368274;19;20738;-62
2023/09/14 11:24:01;;;;;;;0.10;0.10;;;;;;;26.23;45.26;101289.69;7365722;19;20348;-62